Time;durP1;ratioP1;P1;durP2;ratioP2;P2;SDS_P1;SDS_P2;PMS_P1;PMS_P2;Temp;Humidity;BMP_temperature;BMP_pressure;BME280_temperature;BME280_humidity;BME280_pressure;Samples;Min_cycle;Max_cycle;Signal;HPM_P1;HPM_P2
2023/03/20 00:01:51;;;;;;;1.43;1.30;;;20.80;64.20;;;;;;5014820;28;20813;-88
2023/03/20 00:04:17;;;;;;;1.80;1.57;;;20.80;64.30;;;;;;5014102;28;20883;-88
2023/03/20 00:06:44;;;;;;;1.33;1.23;;;20.80;64.30;;;;;;5014650;28;20489;-88
2023/03/20 00:09:12;;;;;;;1.80;1.70;;;20.80;64.20;;;;;;5014483;28;20443;-91
2023/03/20 00:11:47;;;;;;;3.33;1.53;;;20.80;64.20;;;;;;5014308;28;20497;-88
2023/03/20 00:14:16;;;;;;;1.30;1.00;;;20.80;64.20;;;;;;5014951;28;20431;-88
2023/03/20 00:16:44;;;;;;;1.40;1.30;;;20.80;65.00;;;;;;5014347;28;20449;-88
2023/03/20 00:19:16;;;;;;;1.53;1.43;;;20.80;64.20;;;;;;5015244;28;20814;-88
2023/03/20 00:21:44;;;;;;;1.50;1.40;;;20.80;64.20;;;;;;4997254;28;20456;-89
2023/03/20 00:24:13;;;;;;;1.57;1.40;;;20.80;64.20;;;;;;5015040;28;20951;-88
2023/03/20 00:26:40;;;;;;;1.40;1.20;;;20.80;64.20;;;;;;5015305;28;20458;-93
2023/03/20 00:29:15;;;;;;;2.00;1.10;;;20.80;64.20;;;;;;5015175;28;20466;-88
2023/03/20 00:31:42;;;;;;;1.77;1.27;;;20.80;64.20;;;;;;5015518;28;21012;-88
2023/03/20 00:34:13;;;;;;;1.40;1.30;;;20.80;64.10;;;;;;5030168;28;20463;-89
2023/03/20 00:36:40;;;;;;;2.07;0.90;;;20.80;64.10;;;;;;5038948;28;20482;-91
2023/03/20 00:39:07;;;;;;;1.33;1.20;;;20.80;64.10;;;;;;5016323;28;20443;-88
2023/03/20 00:41:43;;;;;;;1.50;1.30;;;20.80;64.10;;;;;;5013671;28;20970;-92
2023/03/20 00:44:20;;;;;;;1.47;1.37;;;20.90;65.20;;;;;;5013986;28;20458;-89
2023/03/20 00:46:50;;;;;;;1.80;1.30;;;20.80;64.10;;;;;;5013864;28;20439;-91
2023/03/20 00:49:25;;;;;;;1.30;1.17;;;20.80;64.10;;;;;;5014120;28;20924;-89
2023/03/20 00:51:52;;;;;;;1.40;1.30;;;20.70;64.00;;;;;;5013894;28;20489;-88
2023/03/20 00:54:18;;;;;;;1.40;1.30;;;20.80;64.10;;;;;;5013555;28;20449;-88
2023/03/20 00:56:54;;;;;;;1.47;1.37;;;20.80;64.10;;;;;;5013464;28;20636;-93
2023/03/20 00:59:25;;;;;;;1.53;1.43;;;20.70;64.00;;;;;;5013263;28;20815;-88
2023/03/20 01:01:52;;;;;;;1.37;1.20;;;20.80;64.10;;;;;;5013920;28;20448;-88
2023/03/20 01:04:20;;;;;;;1.30;1.17;;;20.70;64.00;;;;;;5013038;28;20463;-91
2023/03/20 01:06:47;;;;;;;1.70;1.60;;;20.70;64.00;;;;;;5013218;28;20467;-91
2023/03/20 01:09:14;;;;;;;1.33;1.23;;;20.80;64.10;;;;;;5013685;28;20458;-92
2023/03/20 01:11:41;;;;;;;1.60;1.50;;;20.70;64.00;;;;;;5013635;28;20486;-92
2023/03/20 01:14:14;;;;;;;1.43;1.30;;;20.70;63.90;;;;;;5013799;28;20491;-88
2023/03/20 01:16:42;;;;;;;1.63;1.53;;;20.70;63.90;;;;;;5013602;28;20427;-88
2023/03/20 01:19:12;;;;;;;1.53;1.27;;;20.70;63.90;;;;;;5013787;28;20447;-88
2023/03/20 01:21:38;;;;;;;2.30;1.50;;;20.70;63.90;;;;;;5013533;28;20445;-92
2023/03/20 01:24:05;;;;;;;1.50;1.40;;;20.70;63.90;;;;;;5013789;28;20439;-89
2023/03/20 01:26:36;;;;;;;1.30;1.20;;;20.70;63.90;;;;;;5013320;28;20443;-89
2023/03/20 01:29:03;;;;;;;1.60;1.50;;;20.70;63.90;;;;;;5016798;28;20446;-92
2023/03/20 01:31:31;;;;;;;2.00;1.40;;;20.70;64.00;;;;;;5017139;28;20479;-88
2023/03/20 01:33:58;;;;;;;1.47;1.33;;;20.70;64.00;;;;;;5017148;28;20467;-88
2023/03/20 01:36:25;;;;;;;1.50;1.33;;;20.70;63.90;;;;;;5017088;28;20883;-88
2023/03/20 01:38:55;;;;;;;1.37;1.27;;;20.90;64.20;;;;;;5016922;28;20962;-89
2023/03/20 01:41:24;;;;;;;1.40;1.30;;;20.70;63.90;;;;;;5016945;28;20451;-89
2023/03/20 01:43:51;;;;;;;1.57;1.30;;;20.70;63.90;;;;;;5016971;28;20810;-89
2023/03/20 01:46:22;;;;;;;2.40;1.47;;;20.80;64.00;;;;;;5016784;28;20450;-91
2023/03/20 01:49:01;;;;;;;1.50;1.30;;;20.70;63.90;;;;;;5016934;28;20443;-92
2023/03/20 01:51:31;;;;;;;1.40;1.20;;;20.70;63.90;;;;;;5016771;28;20486;-90
2023/03/20 01:54:01;;;;;;;1.50;1.40;;;20.70;63.90;;;;;;5017058;28;20481;-88
2023/03/20 01:56:32;;;;;;;3.07;1.50;;;20.70;63.90;;;;;;5017103;28;20443;-92
2023/03/20 01:59:02;;;;;;;1.57;1.30;;;20.70;63.90;;;;;;5017301;28;20436;-88
2023/03/20 02:01:30;;;;;;;1.30;1.17;;;20.70;63.90;;;;;;5016679;28;20534;-92
2023/03/20 02:03:58;;;;;;;1.20;1.10;;;20.70;63.90;;;;;;4999489;28;20517;-88
2023/03/20 02:06:26;;;;;;;1.47;1.37;;;20.70;63.90;;;;;;5016531;28;20481;-88
2023/03/20 02:08:53;;;;;;;1.60;1.50;;;20.70;63.90;;;;;;5016285;28;20946;-88
2023/03/20 02:11:23;;;;;;;1.30;1.20;;;20.60;63.80;;;;;;5016472;28;20487;-89
2023/03/20 02:13:52;;;;;;;2.33;1.67;;;20.70;63.90;;;;;;5016981;28;20436;-88
2023/03/20 02:16:19;;;;;;;1.50;1.40;;;20.70;63.90;;;;;;5016697;28;20435;-93
2023/03/20 02:18:49;;;;;;;2.13;1.20;;;20.70;63.90;;;;;;5016672;28;20439;-88
2023/03/20 02:21:46;;;;;;;1.50;1.40;;;20.70;63.80;;;;;;5016338;28;20451;-90
2023/03/20 02:24:58;;;;;;;1.40;1.30;;;20.70;63.90;;;;;;5016852;28;20454;-88
2023/03/20 02:27:33;;;;;;;1.60;1.30;;;20.70;63.90;;;;;;5015308;28;20443;-88
2023/03/20 02:30:42;;;;;;;1.77;1.50;;;20.60;63.80;;;;;;5016376;28;20443;-88
2023/03/20 02:33:49;;;;;;;1.60;1.50;;;20.60;63.80;;;;;;5016035;28;20449;-89
2023/03/20 02:37:10;;;;;;;1.70;1.40;;;20.60;63.80;;;;;;4994813;28;20456;-90
2023/03/20 02:39:53;;;;;;;1.60;1.50;;;20.60;63.80;;;;;;4905125;29;20461;-90
2023/03/20 02:42:30;;;;;;;1.57;1.40;;;20.60;63.80;;;;;;5040178;28;20482;-90
2023/03/20 02:45:04;;;;;;;1.50;1.40;;;20.60;63.80;;;;;;5040719;28;20495;-89
2023/03/20 02:47:37;;;;;;;1.70;1.60;;;20.70;63.80;;;;;;5023553;28;20436;-89
2023/03/20 02:50:15;;;;;;;1.50;1.40;;;20.60;63.80;;;;;;5018042;28;20443;-88
2023/03/20 02:52:46;;;;;;;1.60;1.50;;;20.60;63.70;;;;;;5016548;28;20517;-88
2023/03/20 02:55:18;;;;;;;1.50;1.30;;;20.60;63.70;;;;;;5016573;28;20558;-89
2023/03/20 02:57:52;;;;;;;1.63;1.53;;;20.60;63.70;;;;;;5016717;28;20439;-89
2023/03/20 03:00:27;;;;;;;1.47;1.30;;;20.70;63.80;;;;;;5017237;28;20434;-88
2023/03/20 03:03:00;;;;;;;1.30;1.20;;;20.60;63.70;;;;;;5017893;28;20771;-90
2023/03/20 03:05:35;;;;;;;1.60;1.27;;;20.60;63.70;;;;;;5017908;28;20474;-91
2023/03/20 03:08:04;;;;;;;1.40;1.30;;;20.60;63.70;;;;;;5040395;28;20457;-90
2023/03/20 03:10:36;;;;;;;1.37;1.27;;;20.60;63.70;;;;;;5032775;28;20452;-88
2023/03/20 03:13:06;;;;;;;1.50;1.40;;;20.60;63.70;;;;;;4997796;28;20965;-90
2023/03/20 03:15:37;;;;;;;2.13;1.30;;;20.60;63.70;;;;;;5015301;28;20923;-88
2023/03/20 03:18:08;;;;;;;1.60;1.50;;;20.60;63.70;;;;;;4998162;28;20954;-89
2023/03/20 03:20:37;;;;;;;1.20;1.10;;;20.60;63.70;;;;;;5015406;28;20474;-92
2023/03/20 03:23:05;;;;;;;1.30;1.20;;;20.60;63.70;;;;;;5014870;28;20436;-94
2023/03/20 03:25:37;;;;;;;1.30;1.20;;;20.60;63.70;;;;;;5014833;28;20443;-92
2023/03/20 03:28:10;;;;;;;1.50;1.20;;;20.60;63.70;;;;;;5015169;28;20443;-93
2023/03/20 03:33:25;;;;;;;1.40;1.30;;;20.60;63.60;;;;;;5026696;28;20431;-88
2023/03/20 03:36:00;;;;;;;1.30;1.00;;;20.60;63.70;;;;;;5015268;28;20753;-88
2023/03/20 03:38:40;;;;;;;1.40;1.20;;;20.60;63.70;;;;;;5014825;28;20943;-88
2023/03/20 03:41:19;;;;;;;1.60;1.20;;;20.50;63.50;;;;;;5014609;28;20447;-89
2023/03/20 03:43:51;;;;;;;1.40;1.30;;;20.60;63.60;;;;;;5014398;28;20450;-92
2023/03/20 03:46:26;;;;;;;1.20;1.10;;;20.50;63.50;;;;;;5014599;28;20531;-91
2023/03/20 03:48:57;;;;;;;1.50;1.40;;;20.70;63.70;;;;;;4970271;28;20509;-92
2023/03/20 03:51:28;;;;;;;1.10;0.90;;;20.60;64.50;;;;;;4985014;28;20481;-91
2023/03/20 03:53:59;;;;;;;1.60;1.50;;;20.50;63.50;;;;;;5014389;28;20431;-88
2023/03/20 03:56:32;;;;;;;1.20;1.10;;;20.60;63.60;;;;;;5014154;28;20457;-88
2023/03/20 03:59:03;;;;;;;1.20;1.00;;;20.60;63.60;;;;;;5014502;28;20450;-88
2023/03/20 04:01:34;;;;;;;1.20;1.10;;;20.60;63.70;;;;;;4991654;28;20490;-89
2023/03/20 04:04:03;;;;;;;1.30;1.20;;;20.60;63.60;;;;;;5014538;28;20471;-87
2023/03/20 04:06:30;;;;;;;1.40;1.30;;;20.60;63.60;;;;;;5014186;28;20471;-88
2023/03/20 04:08:57;;;;;;;1.27;1.17;;;20.60;63.60;;;;;;5014502;28;20443;-88
2023/03/20 04:11:27;;;;;;;1.50;1.40;;;20.50;63.50;;;;;;5017034;28;20482;-88
2023/03/20 04:13:57;;;;;;;1.40;1.30;;;20.50;63.40;;;;;;5014296;28;20478;-92
2023/03/20 04:16:25;;;;;;;1.20;1.07;;;20.50;63.50;;;;;;5014641;28;20435;-88
2023/03/20 04:18:54;;;;;;;1.50;1.40;;;20.60;63.60;;;;;;5014352;28;20443;-91
2023/03/20 04:21:21;;;;;;;1.23;1.13;;;20.60;63.60;;;;;;5014192;28;20447;-89
2023/03/20 04:23:48;;;;;;;1.20;1.10;;;20.60;63.50;;;;;;5014565;28;20447;-89
2023/03/20 04:26:15;;;;;;;1.30;1.20;;;20.50;63.50;;;;;;5014336;28;20466;-88
2023/03/20 04:28:42;;;;;;;1.33;1.10;;;20.50;63.40;;;;;;4997282;28;20840;-92
2023/03/20 04:31:11;;;;;;;1.20;1.03;;;20.50;63.40;;;;;;5014050;28;20467;-88
2023/03/20 04:33:38;;;;;;;1.20;1.10;;;20.50;63.40;;;;;;5013789;28;20475;-89
2023/03/20 04:36:06;;;;;;;1.40;1.30;;;20.50;63.40;;;;;;5013915;28;20459;-88
2023/03/20 04:38:33;;;;;;;1.20;1.10;;;20.50;63.40;;;;;;5014539;28;20447;-88
2023/03/20 04:41:00;;;;;;;1.33;1.23;;;20.50;63.40;;;;;;5014114;28;20532;-88
2023/03/20 04:43:27;;;;;;;1.30;1.20;;;20.50;63.40;;;;;;5014297;28;20446;-90
2023/03/20 04:45:54;;;;;;;1.30;1.20;;;20.50;63.40;;;;;;5014166;28;20525;-92
2023/03/20 04:48:22;;;;;;;1.50;1.10;;;20.50;63.40;;;;;;5014359;28;20450;-88
2023/03/20 04:50:49;;;;;;;1.37;1.17;;;20.50;63.40;;;;;;5014162;28;20451;-89
2023/03/20 04:53:17;;;;;;;1.30;1.13;;;20.50;63.40;;;;;;5014364;28;20622;-89
2023/03/20 04:55:44;;;;;;;1.73;1.20;;;20.50;63.40;;;;;;5014430;28;20529;-88
2023/03/20 04:58:11;;;;;;;1.50;1.10;;;20.50;63.40;;;;;;5014922;28;20451;-91
2023/03/20 05:00:38;;;;;;;1.30;1.20;;;20.50;63.40;;;;;;5014164;28;20447;-90
2023/03/20 05:03:05;;;;;;;1.30;1.20;;;20.50;63.40;;;;;;5017970;28;20819;-92
2023/03/20 05:05:36;;;;;;;1.00;0.87;;;20.70;63.60;;;;;;5006627;28;21028;-92
2023/03/20 05:08:04;;;;;;;1.27;1.17;;;20.50;63.40;;;;;;5018768;28;20514;-91
2023/03/20 05:10:31;;;;;;;1.10;0.97;;;20.50;63.40;;;;;;5017966;28;20505;-90
2023/03/20 05:12:58;;;;;;;2.17;1.07;;;20.50;63.40;;;;;;5017727;28;20474;-88
2023/03/20 05:15:25;;;;;;;1.40;1.30;;;20.50;63.40;;;;;;5018200;28;20448;-88
2023/03/20 05:17:52;;;;;;;1.30;1.20;;;20.50;63.40;;;;;;5018008;28;20445;-91
2023/03/20 05:20:19;;;;;;;1.87;1.77;;;20.50;63.30;;;;;;5018865;28;20439;-91
2023/03/20 05:22:50;;;;;;;1.20;1.00;;;20.50;63.40;;;;;;5020431;28;20444;-95
2023/03/20 05:25:17;;;;;;;1.30;1.20;;;20.50;63.30;;;;;;5019933;28;20443;-92
2023/03/20 05:27:45;;;;;;;1.27;1.10;;;20.50;63.30;;;;;;5022384;28;20877;-95
2023/03/20 05:30:13;;;;;;;1.20;1.10;;;20.50;63.30;;;;;;5022411;28;20977;-90
2023/03/20 05:32:40;;;;;;;1.30;1.20;;;20.50;63.40;;;;;;5019595;28;21001;-92
2023/03/20 05:35:08;;;;;;;2.27;1.50;;;20.50;63.50;;;;;;5023086;28;20467;-91
2023/03/20 05:37:35;;;;;;;1.60;1.07;;;20.50;63.40;;;;;;5020711;28;20443;-89
2023/03/20 05:40:05;;;;;;;2.53;1.70;;;20.50;63.20;;;;;;5036723;28;20447;-89
2023/03/20 05:42:32;;;;;;;2.70;1.33;;;20.50;63.40;;;;;;5036756;28;20439;-94
2023/03/20 05:44:58;;;;;;;3.80;2.00;;;20.50;63.50;;;;;;5016908;28;20949;-89
2023/03/20 05:47:25;;;;;;;4.73;1.43;;;20.50;63.60;;;;;;5016960;28;20535;-89
2023/03/20 05:49:52;;;;;;;1.93;1.30;;;20.50;63.70;;;;;;5016868;28;20457;-90
2023/03/20 05:52:19;;;;;;;4.83;1.53;;;20.50;63.80;;;;;;5016507;28;20490;-90
2023/03/20 05:54:46;;;;;;;2.97;1.73;;;20.50;63.90;;;;;;5016771;28;20439;-95
2023/03/20 05:57:14;;;;;;;4.57;1.70;;;20.50;64.00;;;;;;5016722;28;20942;-90
2023/03/20 05:59:41;;;;;;;1.87;1.40;;;20.50;64.00;;;;;;5017239;28;20465;-89
2023/03/20 06:02:08;;;;;;;3.73;1.73;;;20.50;64.00;;;;;;5017158;28;20447;-89
2023/03/20 06:04:36;;;;;;;1.73;1.63;;;20.50;64.10;;;;;;5016388;28;20462;-89
2023/03/20 06:07:03;;;;;;;3.97;1.50;;;20.50;64.20;;;;;;5016868;28;20475;-89
2023/03/20 06:09:30;;;;;;;2.63;1.70;;;20.50;64.20;;;;;;5015032;28;20439;-88
2023/03/20 06:11:57;;;;;;;1.90;1.50;;;20.70;64.50;;;;;;5015063;28;20678;-88
2023/03/20 06:14:25;;;;;;;3.23;1.80;;;20.50;64.20;;;;;;5014180;28;20450;-90
2023/03/20 06:16:53;;;;;;;2.13;1.37;;;20.50;64.00;;;;;;5014717;28;20465;-93
2023/03/20 06:19:21;;;;;;;2.50;1.80;;;20.50;64.10;;;;;;5021429;28;20442;-89
2023/03/20 06:21:51;;;;;;;4.13;1.40;;;20.50;64.30;;;;;;5016658;28;20451;-94
2023/03/20 06:24:22;;;;;;;2.03;1.87;;;20.50;64.40;;;;;;5023581;28;20486;-91
2023/03/20 06:32:26;;;;;;;1.70;1.50;;;20.50;64.40;;;;;;5288385;23;20238;-91
2023/03/20 06:34:54;;;;;;;3.40;1.87;;;20.50;65.30;;;;;;5029147;28;20486;-92
2023/03/20 06:37:21;;;;;;;13.90;1.87;;;20.50;64.40;;;;;;5029638;28;20451;-90
2023/03/20 06:39:58;;;;;;;2.13;1.83;;;20.50;64.50;;;;;;5028102;28;20451;-93
2023/03/20 06:42:25;;;;;;;2.97;2.00;;;20.50;64.50;;;;;;5025019;28;20891;-90
2023/03/20 06:44:53;;;;;;;1.50;1.40;;;20.50;64.50;;;;;;5010403;28;20818;-89
2023/03/20 06:47:20;;;;;;;3.50;1.63;;;20.50;64.60;;;;;;5020877;28;20526;-91
2023/03/20 06:50:36;;;;;;;4.47;2.63;;;20.50;64.20;;;;;;5018342;28;20960;-96
2023/03/20 06:53:04;;;;;;;2.10;1.63;;;20.60;63.30;;;;;;5014945;28;20486;-93
2023/03/20 06:55:31;;;;;;;3.80;1.90;;;20.50;63.70;;;;;;5015068;28;20794;-91
2023/03/20 06:57:58;;;;;;;2.33;1.63;;;20.50;63.80;;;;;;5015578;28;20531;-91
2023/03/20 07:00:25;;;;;;;3.60;2.33;;;20.50;64.10;;;;;;5016259;28;20469;-93
2023/03/20 07:02:53;;;;;;;4.30;2.57;;;20.50;64.20;;;;;;5015904;28;20945;-93
2023/03/20 07:05:20;;;;;;;3.70;2.07;;;20.50;64.60;;;;;;5016138;28;20474;-94
2023/03/20 07:07:47;;;;;;;8.40;2.17;;;20.50;65.20;;;;;;5016093;28;20448;-94
2023/03/20 07:10:16;;;;;;;2.60;2.37;;;20.50;65.50;;;;;;5015438;28;20449;-94
2023/03/20 07:12:43;;;;;;;3.10;2.27;;;20.50;65.70;;;;;;5014941;28;20494;-94
2023/03/20 07:15:11;;;;;;;4.10;1.93;;;20.50;65.90;;;;;;5017130;28;20454;-93
2023/03/20 07:17:38;;;;;;;3.57;2.10;;;20.50;65.90;;;;;;5015770;28;20435;-93
2023/03/20 07:20:07;;;;;;;6.80;2.10;;;20.50;65.90;;;;;;5015040;28;20451;-92
2023/03/20 07:22:34;;;;;;;6.40;1.97;;;20.50;66.00;;;;;;5015500;28;20455;-94
2023/03/20 07:25:02;;;;;;;3.57;1.87;;;20.50;65.90;;;;;;5016671;28;20526;-94
2023/03/20 07:27:30;;;;;;;3.67;1.90;;;20.50;65.90;;;;;;5015539;28;20534;-94
2023/03/20 07:29:57;;;;;;;3.67;2.13;;;20.50;65.90;;;;;;5015779;28;20546;-94
2023/03/20 07:32:23;;;;;;;3.47;1.90;;;20.50;65.90;;;;;;5015609;28;20849;-94
2023/03/20 07:34:50;;;;;;;2.40;1.67;;;20.50;65.90;;;;;;5017817;28;20481;-94
2023/03/20 07:37:17;;;;;;;7.07;1.93;;;20.50;65.80;;;;;;5036319;28;20498;-92
2023/03/20 07:39:44;;;;;;;4.47;1.90;;;20.50;65.90;;;;;;5039701;28;20466;-91
2023/03/20 07:42:12;;;;;;;2.53;1.73;;;20.60;65.90;;;;;;5039648;28;20459;-91
2023/03/20 07:44:40;;;;;;;1.97;1.70;;;20.50;65.90;;;;;;5025820;28;20475;-93
2023/03/20 07:47:07;;;;;;;2.43;1.90;;;20.50;65.80;;;;;;5017068;28;20451;-91
2023/03/20 07:49:34;;;;;;;4.43;1.80;;;20.50;65.80;;;;;;5017119;28;20450;-94
2023/03/20 07:52:01;;;;;;;2.90;1.70;;;20.70;65.90;;;;;;5015017;28;20543;-93
2023/03/20 07:54:28;;;;;;;1.60;1.40;;;20.50;65.70;;;;;;5015190;28;20446;-91
2023/03/20 07:56:55;;;;;;;3.63;2.00;;;20.50;65.60;;;;;;5015296;28;20475;-91
2023/03/20 07:59:22;;;;;;;8.93;2.00;;;20.50;65.60;;;;;;5015131;28;20490;-94
2023/03/20 08:01:50;;;;;;;3.50;1.87;;;20.70;65.80;;;;;;5014949;28;20478;-94
2023/03/20 08:04:18;;;;;;;2.43;1.50;;;20.50;65.50;;;;;;5015860;28;20465;-91
2023/03/20 08:06:45;;;;;;;2.23;1.90;;;20.60;65.60;;;;;;5015541;28;20491;-91
2023/03/20 08:09:12;;;;;;;3.63;1.47;;;20.60;65.50;;;;;;5016448;28;20442;-94
2023/03/20 08:11:39;;;;;;;3.10;2.10;;;20.50;65.30;;;;;;5017169;28;20446;-91
2023/03/20 08:14:05;;;;;;;4.80;1.80;;;20.50;65.40;;;;;;5037174;28;20478;-91
2023/03/20 08:16:32;;;;;;;3.30;1.57;;;20.60;65.50;;;;;;5034399;28;20526;-94
2023/03/20 08:19:02;;;;;;;5.70;1.80;;;20.60;65.50;;;;;;5014141;28;20439;-91
2023/03/20 08:21:29;;;;;;;2.07;1.43;;;20.60;65.40;;;;;;5014474;28;20447;-91
2023/03/20 08:23:56;;;;;;;5.10;1.80;;;20.50;65.30;;;;;;5014222;28;20519;-93
2023/03/20 08:26:23;;;;;;;3.97;1.73;;;20.60;65.40;;;;;;5014105;28;20954;-94
2023/03/20 08:28:50;;;;;;;1.60;1.43;;;20.60;65.20;;;;;;5013976;28;20443;-91
2023/03/20 08:31:17;;;;;;;3.20;1.47;;;20.60;65.10;;;;;;5013769;28;20439;-92
2023/03/20 08:33:44;;;;;;;1.80;1.60;;;20.60;64.70;;;;;;5013799;28;20518;-94
2023/03/20 08:36:14;;;;;;;3.70;2.27;;;20.60;64.60;;;;;;5014133;28;20489;-91
2023/03/20 08:38:41;;;;;;;2.67;1.50;;;20.70;64.60;;;;;;5014067;28;20445;-94
2023/03/20 08:41:08;;;;;;;5.43;1.70;;;20.80;64.70;;;;;;5014007;28;20450;-91
2023/03/20 08:43:35;;;;;;;2.43;1.60;;;20.70;64.50;;;;;;5013784;28;20444;-94
2023/03/20 08:46:02;;;;;;;1.53;1.43;;;20.70;64.50;;;;;;5013849;28;20442;-94
2023/03/20 08:48:28;;;;;;;3.43;1.53;;;20.70;64.50;;;;;;5014073;28;20435;-91
2023/03/20 08:50:55;;;;;;;2.47;1.40;;;20.70;64.50;;;;;;5013934;28;20439;-94
2023/03/20 08:53:24;;;;;;;3.20;1.60;;;20.70;64.60;;;;;;5014408;28;20553;-91
2023/03/20 08:55:51;;;;;;;3.03;1.80;;;20.70;64.60;;;;;;5014708;28;20811;-93
2023/03/20 08:58:18;;;;;;;2.00;1.50;;;20.70;64.60;;;;;;5017310;28;20877;-94
2023/03/20 09:00:45;;;;;;;2.47;1.60;;;20.70;64.60;;;;;;5016966;28;20538;-93
2023/03/20 09:03:13;;;;;;;2.53;1.70;;;20.70;65.40;;;;;;5016583;28;20487;-91
2023/03/20 09:05:40;;;;;;;2.70;1.63;;;20.70;64.60;;;;;;5014064;28;20448;-91
2023/03/20 09:08:07;;;;;;;1.70;1.60;;;20.70;64.60;;;;;;5013665;28;20448;-94
2023/03/20 09:10:35;;;;;;;1.90;1.50;;;20.70;64.60;;;;;;5015565;28;20931;-93
2023/03/20 09:13:02;;;;;;;2.27;1.73;;;20.70;64.60;;;;;;5014067;28;21035;-93
2023/03/20 09:15:29;;;;;;;3.40;2.00;;;20.70;64.30;;;;;;5014061;28;20447;-92
2023/03/20 09:17:56;;;;;;;3.60;1.63;;;20.70;64.40;;;;;;5014902;28;20459;-91
2023/03/20 09:20:23;;;;;;;2.57;1.50;;;20.70;64.20;;;;;;5013670;28;20447;-92
2023/03/20 09:22:50;;;;;;;1.80;1.60;;;20.70;64.20;;;;;;5013300;28;20440;-94
2023/03/20 09:25:17;;;;;;;5.83;1.77;;;20.70;64.30;;;;;;5013229;28;20510;-91
2023/03/20 09:27:45;;;;;;;2.53;1.70;;;20.90;64.50;;;;;;5013364;28;20451;-93
2023/03/20 09:30:13;;;;;;;2.13;1.60;;;20.70;64.30;;;;;;5013248;28;20443;-91
2023/03/20 09:32:40;;;;;;;1.60;1.20;;;20.70;64.20;;;;;;5013178;28;20497;-91
2023/03/20 09:35:07;;;;;;;2.27;1.60;;;20.70;64.30;;;;;;5013774;28;20938;-94
2023/03/20 09:37:35;;;;;;;1.70;1.60;;;20.70;64.30;;;;;;5013234;28;20439;-94
2023/03/20 09:40:02;;;;;;;2.67;1.60;;;20.70;64.20;;;;;;5013301;28;20500;-94
2023/03/20 09:42:39;;;;;;;1.87;1.50;;;20.70;64.20;;;;;;5013137;28;20441;-93
2023/03/20 09:45:14;;;;;;;1.47;1.37;;;20.70;64.20;;;;;;5013213;28;20443;-92
2023/03/20 09:47:50;;;;;;;2.50;1.50;;;20.70;64.20;;;;;;5013469;28;20497;-94
2023/03/20 09:50:28;;;;;;;1.80;1.47;;;20.70;64.10;;;;;;5016997;28;20496;-91
2023/03/20 09:52:59;;;;;;;2.60;1.60;;;20.70;64.20;;;;;;5016559;28;20486;-94
2023/03/20 09:55:33;;;;;;;2.03;1.40;;;20.70;64.20;;;;;;5016817;28;20472;-93
2023/03/20 09:58:07;;;;;;;7.30;1.50;;;20.70;64.10;;;;;;5016641;28;20529;-94
2023/03/20 10:00:36;;;;;;;2.03;1.40;;;20.70;64.20;;;;;;5016486;28;20804;-94
2023/03/20 10:03:06;;;;;;;1.87;1.40;;;20.70;64.10;;;;;;5016433;28;20467;-94
2023/03/20 10:05:38;;;;;;;2.00;1.50;;;20.70;64.10;;;;;;5016434;28;20442;-91
2023/03/20 10:08:10;;;;;;;2.50;1.40;;;20.70;64.10;;;;;;5016961;28;20534;-93
2023/03/20 10:10:47;;;;;;;1.70;1.50;;;20.70;64.10;;;;;;5016505;28;20443;-93
2023/03/20 10:13:38;;;;;;;1.77;1.50;;;20.70;64.10;;;;;;5016918;28;21002;-92
2023/03/20 10:16:13;;;;;;;2.00;1.53;;;20.70;64.10;;;;;;5016365;28;20864;-94
2023/03/20 10:18:49;;;;;;;2.57;1.17;;;20.70;64.10;;;;;;5016945;28;20424;-92
2023/03/20 10:21:23;;;;;;;2.23;1.20;;;20.70;64.00;;;;;;5016232;28;21037;-91
2023/03/20 10:23:57;;;;;;;1.47;1.27;;;20.70;64.00;;;;;;5016420;28;20536;-90
2023/03/20 10:26:24;;;;;;;1.70;1.30;;;20.70;64.00;;;;;;5016161;28;20961;-93
2023/03/20 10:28:57;;;;;;;1.30;1.03;;;20.70;63.90;;;;;;5016314;28;20466;-94
2023/03/20 10:31:34;;;;;;;1.30;1.20;;;20.70;63.90;;;;;;5016207;28;20443;-93
2023/03/20 10:34:17;;;;;;;1.43;1.20;;;20.70;64.00;;;;;;5015838;28;20490;-94
2023/03/20 10:36:54;;;;;;;1.63;1.07;;;20.70;64.00;;;;;;5016057;28;20537;-93
2023/03/20 10:39:34;;;;;;;1.50;1.20;;;20.60;63.80;;;;;;5015927;28;20481;-93
2023/03/20 10:42:03;;;;;;;2.30;1.47;;;20.70;64.00;;;;;;5015886;28;20446;-91
2023/03/20 10:44:37;;;;;;;1.40;1.30;;;20.70;64.00;;;;;;5017212;28;20439;-91
2023/03/20 10:47:09;;;;;;;1.53;1.40;;;20.60;63.90;;;;;;5025752;28;20450;-91
2023/03/20 10:49:40;;;;;;;3.10;1.20;;;20.70;64.10;;;;;;5040856;28;20462;-91
2023/03/20 10:52:13;;;;;;;1.67;1.47;;;20.70;64.10;;;;;;5024863;28;20450;-91
2023/03/20 10:54:42;;;;;;;1.43;1.23;;;20.70;64.10;;;;;;5016065;28;20525;-93
2023/03/20 10:57:17;;;;;;;3.80;1.80;;;20.80;64.20;;;;;;5015608;28;20817;-93
2023/03/20 10:59:48;;;;;;;2.60;1.30;;;20.70;64.10;;;;;;5015495;28;20449;-93
2023/03/20 11:02:20;;;;;;;1.97;1.30;;;20.70;64.10;;;;;;5015690;28;20957;-94
2023/03/20 11:04:47;;;;;;;1.50;1.40;;;20.70;64.10;;;;;;5016136;28;20517;-92
2023/03/20 11:07:22;;;;;;;1.83;1.23;;;20.70;64.10;;;;;;5015698;28;20439;-93
2023/03/20 11:10:09;;;;;;;1.67;1.13;;;20.80;64.20;;;;;;5015414;28;20439;-94
2023/03/20 11:12:38;;;;;;;1.27;0.97;;;20.90;64.30;;;;;;5015827;28;20454;-93
2023/03/20 11:15:19;;;;;;;1.67;1.30;;;20.70;64.10;;;;;;5015424;28;20487;-94
2023/03/20 11:17:55;;;;;;;1.53;1.43;;;20.70;64.00;;;;;;5015173;28;20805;-92
2023/03/20 11:20:24;;;;;;;1.40;1.30;;;20.70;64.20;;;;;;5015149;28;20497;-93
2023/03/20 11:22:57;;;;;;;1.40;1.30;;;20.80;64.30;;;;;;5015147;28;20859;-93
2023/03/20 11:25:31;;;;;;;1.27;1.00;;;20.70;64.20;;;;;;5015081;28;20446;-92
2023/03/20 11:28:21;;;;;;;2.07;1.23;;;20.70;64.20;;;;;;5015153;28;20430;-91
2023/03/20 11:30:50;;;;;;;1.63;1.30;;;20.70;64.20;;;;;;5014983;28;20923;-91
2023/03/20 11:33:18;;;;;;;1.63;1.10;;;20.70;64.30;;;;;;5014797;28;21022;-92
2023/03/20 11:35:46;;;;;;;1.73;1.33;;;20.70;64.30;;;;;;5014908;28;20444;-91
2023/03/20 11:38:16;;;;;;;1.30;1.20;;;20.70;64.30;;;;;;5014751;28;20447;-91
2023/03/20 11:40:43;;;;;;;1.70;1.23;;;20.70;64.30;;;;;;5014784;28;20440;-93
2023/03/20 11:43:13;;;;;;;1.23;1.03;;;20.70;64.30;;;;;;5014825;28;20446;-91
2023/03/20 11:45:42;;;;;;;1.97;1.40;;;20.70;64.20;;;;;;5014655;28;20526;-94
2023/03/20 11:48:17;;;;;;;1.20;1.10;;;20.70;64.20;;;;;;5014753;28;20451;-93
2023/03/20 11:50:48;;;;;;;2.30;1.20;;;20.70;64.20;;;;;;5014721;28;20438;-94
2023/03/20 11:53:26;;;;;;;1.97;1.20;;;20.90;64.50;;;;;;5014750;28;20443;-94
2023/03/20 11:56:07;;;;;;;1.40;1.30;;;20.70;64.20;;;;;;5014960;28;20453;-92
2023/03/20 11:58:38;;;;;;;1.70;1.40;;;20.70;64.20;;;;;;5014699;28;20539;-91
2023/03/20 12:01:10;;;;;;;2.13;1.33;;;20.70;64.20;;;;;;5014556;28;20446;-92
2023/03/20 12:03:41;;;;;;;1.10;0.90;;;20.70;64.20;;;;;;5014134;28;20475;-91
2023/03/20 12:06:17;;;;;;;1.23;1.13;;;20.70;64.20;;;;;;5014490;28;20461;-93
2023/03/20 12:08:51;;;;;;;1.47;1.10;;;20.80;64.30;;;;;;5014359;28;20451;-91
2023/03/20 12:11:38;;;;;;;1.30;1.17;;;20.70;64.20;;;;;;5013565;28;20451;-91
2023/03/20 12:14:13;;;;;;;2.80;1.10;;;20.70;64.20;;;;;;4998084;28;20482;-91
2023/03/20 12:16:41;;;;;;;1.50;1.13;;;20.70;64.20;;;;;;5014565;28;20509;-91
2023/03/20 12:19:16;;;;;;;1.30;1.10;;;20.80;64.30;;;;;;5014149;28;20800;-92
2023/03/20 12:21:51;;;;;;;2.30;1.13;;;20.70;64.20;;;;;;5014086;28;20449;-93
2023/03/20 12:24:30;;;;;;;1.50;1.20;;;20.70;64.10;;;;;;5014210;28;20450;-94
2023/03/20 12:27:07;;;;;;;1.77;1.30;;;20.70;64.20;;;;;;5014087;28;20533;-92
2023/03/20 12:29:43;;;;;;;1.53;0.90;;;20.70;64.20;;;;;;5014018;28;20450;-91
2023/03/20 12:32:16;;;;;;;1.20;0.90;;;20.70;64.20;;;;;;5018653;28;20454;-93
2023/03/20 12:34:46;;;;;;;1.30;1.20;;;20.70;64.10;;;;;;5038847;28;20487;-92
2023/03/20 12:37:17;;;;;;;2.27;1.53;;;20.70;64.10;;;;;;5038727;28;20458;-92
2023/03/20 12:39:49;;;;;;;1.37;1.00;;;20.70;64.10;;;;;;5037071;28;20490;-91
2023/03/20 12:42:25;;;;;;;1.20;1.10;;;20.70;64.10;;;;;;5014016;28;20474;-93
2023/03/20 12:44:59;;;;;;;1.30;1.17;;;20.70;64.10;;;;;;5013862;28;20790;-95
2023/03/20 12:47:46;;;;;;;1.70;1.20;;;20.70;64.10;;;;;;5014002;28;20454;-93
2023/03/20 12:50:24;;;;;;;1.50;1.00;;;20.70;64.20;;;;;;5013734;28;20442;-91
2023/03/20 12:53:04;;;;;;;1.20;0.90;;;20.70;64.20;;;;;;5013828;28;20454;-94
2023/03/20 12:55:42;;;;;;;1.20;1.00;;;20.70;64.10;;;;;;5013621;28;20490;-94
2023/03/20 12:58:21;;;;;;;2.23;1.00;;;20.70;64.00;;;;;;5014078;28;20461;-94
2023/03/20 13:00:54;;;;;;;1.30;1.10;;;20.80;65.00;;;;;;5013885;28;20438;-93
2023/03/20 13:03:33;;;;;;;2.40;1.33;;;20.70;63.90;;;;;;5014117;28;20951;-92
2023/03/20 13:06:07;;;;;;;1.10;1.00;;;20.70;64.10;;;;;;5014467;28;20443;-94
2023/03/20 13:09:01;;;;;;;1.30;1.00;;;20.80;64.20;;;;;;5014314;28;20443;-94
2023/03/20 13:11:35;;;;;;;1.20;1.00;;;20.70;64.10;;;;;;5014529;28;20443;-93
2023/03/20 13:14:07;;;;;;;1.20;1.10;;;20.70;64.00;;;;;;5014648;28;20485;-93
2023/03/20 13:16:44;;;;;;;1.10;1.00;;;20.70;64.10;;;;;;5014648;28;20449;-91